createdAt,value
2019-04-06T00:00:42.455Z,54.23
2019-04-06T00:03:14.540Z,53.00
2019-04-06T00:05:46.621Z,53.17
2019-04-06T00:08:18.619Z,54.13
2019-04-06T00:10:50.588Z,53.07
2019-04-06T00:13:22.649Z,52.77
2019-04-06T00:15:54.694Z,52.67
2019-04-06T00:18:26.786Z,55.27
2019-04-06T00:20:58.762Z,49.80
2019-04-06T00:23:31.149Z,53.10
2019-04-06T00:26:03.206Z,57.97
2019-04-06T00:28:35.283Z,54.40
2019-04-06T00:31:26.745Z,60.97
2019-04-06T00:33:59.027Z,61.07
2019-04-06T00:36:31.371Z,55.60
2019-04-06T00:39:05.087Z,59.37
2019-04-06T00:41:38.905Z,60.33
2019-04-06T00:44:11.282Z,57.47
2019-04-06T00:46:45.150Z,55.90
2019-04-06T00:49:17.198Z,64.33
2019-04-06T00:51:49.210Z,61.47
2019-04-06T00:54:21.193Z,60.97
2019-04-06T00:56:53.186Z,61.17
2019-04-06T00:59:25.158Z,62.13
2019-04-06T01:01:57.171Z,67.50
2019-04-06T01:04:29.145Z,60.53
2019-04-06T01:07:01.118Z,63.23
2019-04-06T01:09:33.105Z,61.33
2019-04-06T01:12:05.055Z,63.17
2019-04-06T01:14:37.082Z,61.90
2019-04-06T01:17:09.991Z,67.43
2019-04-06T01:19:41.941Z,65.30
2019-04-06T01:22:14.024Z,60.77
2019-04-06T01:24:45.973Z,66.90
2019-04-06T01:27:18.147Z,65.43
2019-04-06T01:29:50.425Z,63.33
2019-04-06T01:32:22.666Z,64.10
2019-04-06T01:34:54.629Z,67.17
2019-04-06T01:37:26.624Z,68.10
2019-04-06T01:39:58.615Z,72.70
2019-04-06T01:42:30.607Z,65.63
2019-04-06T01:45:02.565Z,67.13
2019-04-06T01:47:34.764Z,61.27
2019-04-06T01:50:07.501Z,62.43
2019-04-06T01:52:39.448Z,66.13
2019-04-06T01:55:11.626Z,68.97
2019-04-06T01:57:43.621Z,63.70
2019-04-06T02:00:16.107Z,60.60
2019-04-06T02:02:50.536Z,59.13
2019-04-06T02:05:22.498Z,57.67
2019-04-06T02:07:54.590Z,59.80
2019-04-06T02:10:26.641Z,59.87
2019-04-06T02:12:58.654Z,60.00
2019-04-06T02:15:31.029Z,56.43
2019-04-06T02:18:03.115Z,57.77
2019-04-06T02:20:35.471Z,67.63
2019-04-06T02:23:07.806Z,58.47
2019-04-06T02:25:40.346Z,57.40
2019-04-06T02:28:12.390Z,56.67
2019-04-06T02:30:55.025Z,56.63
2019-04-06T02:33:39.385Z,55.80
2019-04-06T02:36:45.837Z,59.87
2019-04-06T02:39:42.769Z,58.67
2019-04-06T02:42:21.221Z,58.67
2019-04-06T02:44:53.331Z,53.73
2019-04-06T02:47:25.427Z,55.77
2019-04-06T02:49:57.537Z,58.47
2019-04-06T02:52:29.752Z,54.93
2019-04-06T02:55:01.853Z,50.17
2019-04-06T02:57:33.832Z,53.97
2019-04-06T03:00:07.848Z,52.70
2019-04-06T03:02:40.422Z,50.03
2019-04-06T03:05:12.578Z,50.83
2019-04-06T03:07:44.627Z,56.23
2019-04-06T03:10:16.625Z,51.23
2019-04-06T03:12:48.732Z,57.30
2019-04-06T03:15:20.908Z,51.80
2019-04-06T03:17:52.953Z,53.47
2019-04-06T03:20:25.050Z,52.47
2019-04-06T03:22:57.001Z,49.80
2019-04-06T03:25:29.175Z,56.67
2019-04-06T03:28:01.342Z,53.50
2019-04-06T03:30:33.315Z,52.97
2019-04-06T03:33:05.282Z,53.50
2019-04-06T03:35:37.746Z,53.43
2019-04-06T03:38:10.515Z,52.87
2019-04-06T03:40:42.581Z,52.07
2019-04-06T03:43:14.617Z,53.10
2019-04-06T03:45:46.592Z,51.77
2019-04-06T03:48:18.574Z,56.80
2019-04-06T03:50:50.665Z,52.80
2019-04-06T03:53:22.801Z,55.70
2019-04-06T03:55:54.910Z,58.13
2019-04-06T03:58:26.979Z,55.00
2019-04-06T04:00:58.986Z,52.70
2019-04-06T04:03:31.083Z,52.93
2019-04-06T04:06:03.210Z,54.60
2019-04-06T04:08:35.199Z,50.83
2019-04-06T04:11:07.143Z,55.53
2019-04-06T04:13:39.135Z,55.73
2019-04-06T04:16:11.245Z,56.93
2019-04-06T04:18:43.233Z,59.43
2019-04-06T04:21:15.175Z,64.43
2019-04-06T04:23:47.215Z,61.70
2019-04-06T04:26:19.194Z,52.57
2019-04-06T04:28:51.260Z,55.33
2019-04-06T04:31:23.223Z,61.03
2019-04-06T04:33:55.312Z,60.20
2019-04-06T04:36:27.295Z,53.60
2019-04-06T04:38:59.300Z,48.47
2019-04-06T04:41:31.319Z,52.30
2019-04-06T04:44:03.369Z,51.93
2019-04-06T04:46:35.319Z,51.97
2019-04-06T04:49:07.283Z,58.77
2019-04-06T04:51:39.294Z,53.27
2019-04-06T04:54:12.246Z,56.57
2019-04-06T04:56:44.188Z,50.97
2019-04-06T04:59:16.167Z,55.13
2019-04-06T05:01:48.218Z,48.97
2019-04-06T05:04:20.609Z,48.77
2019-04-06T05:06:52.871Z,53.67
2019-04-06T05:09:24.956Z,47.50
2019-04-06T05:11:56.965Z,43.20
2019-04-06T05:15:00.827Z,48.30
2019-04-06T05:17:32.801Z,49.07
2019-04-06T05:20:05.622Z,53.13
2019-04-06T05:22:37.753Z,51.27
2019-04-06T05:25:10.105Z,48.90
2019-04-06T05:27:51.268Z,52.23
2019-04-06T05:30:16.461Z,47.93
2019-04-06T05:32:48.494Z,55.40
2019-04-06T05:35:20.755Z,46.60
2019-04-06T05:37:52.832Z,48.43
2019-04-06T05:40:24.972Z,44.63
2019-04-06T05:42:57.004Z,49.00
2019-04-06T05:45:29.197Z,54.77
2019-04-06T05:48:01.434Z,51.03
2019-04-06T05:50:33.405Z,47.97
2019-04-06T05:53:05.708Z,51.57
2019-04-06T05:55:37.654Z,48.07
2019-04-06T05:58:10.848Z,45.23
2019-04-06T06:00:43.411Z,50.40
2019-04-06T06:03:15.590Z,43.53
2019-04-06T06:05:47.661Z,46.40
2019-04-06T06:08:20.306Z,41.90
2019-04-06T06:10:52.487Z,44.40
2019-04-06T06:13:24.483Z,49.00
2019-04-06T06:15:56.513Z,47.20
2019-04-06T06:18:28.546Z,46.07
2019-04-06T06:21:01.062Z,48.53
2019-04-06T06:23:33.193Z,57.60
2019-04-06T06:26:05.438Z,49.57
2019-04-06T06:28:37.667Z,53.43
2019-04-06T06:31:10.473Z,53.40
2019-04-06T06:33:42.439Z,48.90
2019-04-06T06:36:14.533Z,55.03
2019-04-06T06:38:46.625Z,49.30
2019-04-06T06:41:18.734Z,56.43
2019-04-06T06:43:50.761Z,51.00
2019-04-06T06:46:22.865Z,54.13
2019-04-06T06:48:54.943Z,44.40
2019-04-06T06:51:27.031Z,44.93
2019-04-06T06:54:00.817Z,40.90
2019-04-06T06:56:32.858Z,46.97
2019-04-06T06:59:04.953Z,44.83
2019-04-06T07:01:37.036Z,48.13
2019-04-06T07:04:09.311Z,49.00
2019-04-06T07:06:43.916Z,49.13
2019-04-06T07:09:15.947Z,104.23
2019-04-06T07:11:48.543Z,54.83
2019-04-06T07:14:20.512Z,41.87
2019-04-06T07:16:52.580Z,53.67
2019-04-06T07:19:24.537Z,56.60
2019-04-06T07:21:56.557Z,59.03
2019-04-06T07:24:28.511Z,59.23
2019-04-06T07:27:00.550Z,53.53
2019-04-06T07:29:32.556Z,53.03
2019-04-06T07:32:04.536Z,53.23
2019-04-06T07:34:36.546Z,47.50
2019-04-06T07:37:08.799Z,53.20
2019-04-06T07:39:41.196Z,50.30
2019-04-06T07:42:13.179Z,56.37
2019-04-06T07:44:45.213Z,48.63
2019-04-06T07:47:17.227Z,54.63
2019-04-06T07:49:49.167Z,57.00
2019-04-06T07:52:21.338Z,54.90
2019-04-06T07:54:53.354Z,49.90
2019-04-06T07:57:25.445Z,50.33
2019-04-06T07:59:57.451Z,48.30
2019-04-06T08:02:29.499Z,48.33
2019-04-06T08:05:01.519Z,50.43
2019-04-06T08:07:33.470Z,46.20
2019-04-06T08:10:06.064Z,55.73
2019-04-06T08:12:38.089Z,51.03
2019-04-06T08:15:11.052Z,45.07
2019-04-06T08:17:44.090Z,40.30
2019-04-06T08:20:17.595Z,43.17
2019-04-06T08:22:49.909Z,45.87
2019-04-06T08:25:21.918Z,44.47
2019-04-06T08:27:54.063Z,50.97
2019-04-06T08:30:26.276Z,46.63
2019-04-06T08:32:58.715Z,45.70
2019-04-06T08:35:31.089Z,43.57
2019-04-06T08:38:03.179Z,42.23
2019-04-06T08:40:35.416Z,44.30
2019-04-06T08:43:07.516Z,49.10
2019-04-06T08:45:39.554Z,45.20
2019-04-06T08:48:12.518Z,46.33
2019-04-06T08:50:44.771Z,49.40
2019-04-06T08:53:16.854Z,44.30
2019-04-06T08:55:48.942Z,40.57
2019-04-06T08:58:21.503Z,41.60
2019-04-06T09:00:53.705Z,39.97
2019-04-06T09:03:25.894Z,35.30
2019-04-06T09:05:57.945Z,36.10
2019-04-06T09:08:30.530Z,43.50
2019-04-06T09:11:02.656Z,37.67
2019-04-06T09:13:34.665Z,33.87
2019-04-06T09:16:06.770Z,39.57
2019-04-06T09:18:38.762Z,44.97
2019-04-06T09:21:11.165Z,38.80
2019-04-06T09:23:43.255Z,31.57
2019-04-06T09:26:15.297Z,39.78
2019-04-06T09:28:47.399Z,37.70
2019-04-06T09:31:19.481Z,31.95
2019-04-06T09:33:51.457Z,29.98
2019-04-06T09:36:23.592Z,28.60
2019-04-06T09:38:56.313Z,26.35
2019-04-06T09:41:29.916Z,27.90
2019-04-06T09:44:02.006Z,23.90
2019-04-06T09:46:41.865Z,24.65
2019-04-06T09:49:32.686Z,22.07
2019-04-06T09:52:22.401Z,29.63
2019-04-06T09:55:13.235Z,30.85
2019-04-06T09:57:58.615Z,34.83
2019-04-06T10:00:43.306Z,34.83
2019-04-06T10:03:34.399Z,29.18
2019-04-06T10:06:16.792Z,33.65
2019-04-06T10:09:26.162Z,44.30
2019-04-06T10:12:17.829Z,32.23
2019-04-06T10:15:03.565Z,31.62
2019-04-06T10:17:54.763Z,30.95
2019-04-06T10:20:53.427Z,28.27
2019-04-06T10:24:02.445Z,34.95
2019-04-06T10:26:56.253Z,29.65
2019-04-06T10:29:58.765Z,28.92
2019-04-06T10:32:37.159Z,26.82
2019-04-06T10:35:21.034Z,24.07
2019-04-06T10:38:14.075Z,26.40
2019-04-06T10:41:08.133Z,24.18
2019-04-06T10:44:08.650Z,22.25
2019-04-06T10:46:58.635Z,25.88
2019-04-06T10:50:07.608Z,22.58
2019-04-06T10:53:02.192Z,37.93
2019-04-06T10:55:57.595Z,26.93
2019-04-06T10:58:54.923Z,26.80
2019-04-06T11:01:49.058Z,27.27
2019-04-06T11:04:34.970Z,26.97
2019-04-06T11:07:24.617Z,27.70
2019-04-06T11:10:24.387Z,31.30
2019-04-06T11:13:13.726Z,26.73
2019-04-06T11:15:53.586Z,41.02
2019-04-06T11:18:42.980Z,39.03
2019-04-06T11:21:33.814Z,42.48
2019-04-06T11:24:23.489Z,37.90
2019-04-06T11:27:11.896Z,32.93
2019-04-06T11:30:13.112Z,32.93
2019-04-06T11:33:07.174Z,37.17
2019-04-06T11:35:54.098Z,56.18
2019-04-06T11:38:45.081Z,41.90
2019-04-06T11:41:28.153Z,49.25
2019-04-06T11:44:07.793Z,42.20
2019-04-06T11:46:57.444Z,37.20
2019-04-06T11:49:44.349Z,33.60
2019-04-06T11:52:34.034Z,36.67
2019-04-06T11:55:18.901Z,42.60
2019-04-06T11:58:10.325Z,42.63
2019-04-06T12:01:03.929Z,37.67
2019-04-06T12:03:54.757Z,37.20
2019-04-06T12:06:37.191Z,39.63
2019-04-06T12:09:28.243Z,61.13
2019-04-06T12:12:18.555Z,59.43
2019-04-06T12:15:04.930Z,43.57
2019-04-06T12:17:45.548Z,46.23
2019-04-06T12:20:34.596Z,74.40
2019-04-06T12:23:24.079Z,44.73
2019-04-06T12:26:09.445Z,33.10
2019-04-06T12:28:50.402Z,34.13
2019-04-06T12:31:44.692Z,31.77
2019-04-06T12:34:27.374Z,35.47
2019-04-06T12:37:24.771Z,32.00
2019-04-06T12:40:15.323Z,30.77
2019-04-06T12:43:18.149Z,28.93
2019-04-06T12:46:12.478Z,32.60
2019-04-06T12:49:03.389Z,30.40
2019-04-06T12:51:57.317Z,37.87
2019-04-06T12:54:57.845Z,48.53
2019-04-06T12:57:49.573Z,66.90
2019-04-06T13:00:49.303Z,61.27
2019-04-06T13:03:31.343Z,67.13
2019-04-06T13:06:37.849Z,74.07
2019-04-06T13:09:44.504Z,88.13
2019-04-06T13:12:44.537Z,78.43
2019-04-06T13:15:38.689Z,69.07
2019-04-06T13:18:27.058Z,73.87
2019-04-06T13:21:25.265Z,113.40
2019-04-06T13:24:08.031Z,132.17
2019-04-06T13:26:56.755Z,84.87
2019-04-06T13:29:42.302Z,70.43
2019-04-06T13:32:36.521Z,75.30
2019-04-06T13:35:14.051Z,73.47
2019-04-06T13:37:59.743Z,83.13
2019-04-06T13:40:50.531Z,75.63
2019-04-06T13:43:41.510Z,94.17
2019-04-06T13:46:28.594Z,130.00
2019-04-06T13:49:26.541Z,106.40
2019-04-06T13:52:17.382Z,90.43
2019-04-06T13:55:08.503Z,86.20
2019-04-06T13:58:02.903Z,85.00
2019-04-06T14:01:13.771Z,89.07
2019-04-06T14:03:54.138Z,84.50
2019-04-06T14:06:51.364Z,97.67
2019-04-06T14:09:48.292Z,114.50
2019-04-06T14:12:38.361Z,114.40
2019-04-06T14:15:47.947Z,100.27
2019-04-06T14:18:41.919Z,90.47
2019-04-06T14:21:31.402Z,91.40
2019-04-06T14:24:28.491Z,69.43
2019-04-06T14:27:20.010Z,51.47
2019-04-06T14:30:22.797Z,69.80
2019-04-06T14:33:12.228Z,64.03
2019-04-06T14:36:04.489Z,35.87
2019-04-06T14:38:57.958Z,38.70
2019-04-06T14:41:47.742Z,42.20
2019-04-06T14:44:31.842Z,40.30
2019-04-06T14:47:31.923Z,44.40
2019-04-06T14:50:24.226Z,39.90
2019-04-06T14:53:18.234Z,86.80
2019-04-06T14:56:21.493Z,47.10
2019-04-06T14:59:24.707Z,50.17
2019-04-06T15:02:14.176Z,44.67
2019-04-06T15:05:14.430Z,42.57
2019-04-06T15:08:05.629Z,37.73
2019-04-06T15:11:05.379Z,44.60
2019-04-06T15:13:56.318Z,36.90
2019-04-06T15:16:47.559Z,39.83
2019-04-06T15:19:41.759Z,45.60
2019-04-06T15:22:31.526Z,43.20
2019-04-06T15:25:12.553Z,47.30
2019-04-06T15:28:03.377Z,47.93
2019-04-06T15:30:42.518Z,48.80
2019-04-06T15:33:26.904Z,51.40
2019-04-06T15:36:24.396Z,45.07
2019-04-06T15:39:15.281Z,58.53
2019-04-06T15:42:15.153Z,56.90
2019-04-06T15:45:12.315Z,71.33
2019-04-06T15:48:15.525Z,73.13
2019-04-06T15:51:09.569Z,89.27
2019-04-06T15:54:06.548Z,80.53
2019-04-06T15:56:46.303Z,80.23
2019-04-06T15:59:24.631Z,98.13
2019-04-06T16:02:33.981Z,97.17
2019-04-06T16:05:16.883Z,95.80
2019-04-06T16:07:59.549Z,95.17
2019-04-06T16:10:50.359Z,94.07
2019-04-06T16:13:56.900Z,100.77
2019-04-06T16:16:50.818Z,99.10
2019-04-06T16:19:50.857Z,104.00
2019-04-06T16:22:38.376Z,109.07
2019-04-06T16:25:36.225Z,118.57
2019-04-06T16:28:45.481Z,97.23
2019-04-06T16:31:36.509Z,106.77
2019-04-06T16:34:30.048Z,107.30
2019-04-06T16:37:18.527Z,175.20
2019-04-06T16:40:03.219Z,126.97
2019-04-06T16:42:56.881Z,143.47
2019-04-06T16:45:54.981Z,132.50
2019-04-06T16:48:42.510Z,148.43
2019-04-06T16:51:31.805Z,156.13
2019-04-06T16:54:23.253Z,145.63
2019-04-06T16:57:12.935Z,131.03
2019-04-06T16:59:54.249Z,156.37
2019-04-06T17:02:44.777Z,139.23
2019-04-06T17:05:36.172Z,119.97
2019-04-06T17:08:27.107Z,125.37
2019-04-06T17:11:26.947Z,154.77
2019-04-06T17:14:11.538Z,124.00
2019-04-06T17:17:05.167Z,143.20
2019-04-06T17:19:56.243Z,132.83
2019-04-06T17:22:37.176Z,155.07
2019-04-06T17:25:28.229Z,166.67
2019-04-06T17:28:14.672Z,133.23
2019-04-06T17:31:11.807Z,122.93
2019-04-06T17:33:51.808Z,116.90
2019-04-06T17:36:42.871Z,116.77
2019-04-06T17:39:37.026Z,122.83
2019-04-06T17:42:18.923Z,109.47
2019-04-06T17:45:08.877Z,139.57
2019-04-06T17:47:58.952Z,107.63
2019-04-06T17:50:42.593Z,99.73
2019-04-06T17:53:41.158Z,90.77
2019-04-06T17:56:31.975Z,96.73
2019-04-06T17:59:21.547Z,99.83
2019-04-06T18:02:21.444Z,102.37
2019-04-06T18:05:15.244Z,84.87
2019-04-06T18:08:09.096Z,88.53
2019-04-06T18:10:57.171Z,107.10
2019-04-06T18:13:49.825Z,85.67
2019-04-06T18:16:25.448Z,86.30
2019-04-06T18:18:57.740Z,87.67
2019-04-06T18:21:30.270Z,83.53
2019-04-06T18:24:02.285Z,87.97
2019-04-06T18:26:34.310Z,85.40
2019-04-06T18:29:06.467Z,80.53
2019-04-06T18:31:57.525Z,86.00
2019-04-06T18:34:29.596Z,91.43
2019-04-06T18:37:20.522Z,93.03
2019-04-06T18:39:53.754Z,94.53
2019-04-06T18:42:26.106Z,96.20
2019-04-06T18:44:58.119Z,83.90
2019-04-06T18:47:30.476Z,81.90
2019-04-06T18:50:02.711Z,98.03
2019-04-06T18:52:35.022Z,98.57
2019-04-06T18:55:07.850Z,87.50
2019-04-06T18:57:40.277Z,61.60
2019-04-06T19:00:13.422Z,73.50
2019-04-06T19:02:46.169Z,76.77
2019-04-06T19:05:18.638Z,91.63
2019-04-06T19:07:50.906Z,65.73
2019-04-06T19:10:23.232Z,74.37
2019-04-06T19:12:55.398Z,50.63
2019-04-06T19:15:27.536Z,64.90
2019-04-06T19:18:00.156Z,59.77
2019-04-06T19:20:32.338Z,50.63
2019-04-06T19:23:04.753Z,72.67
2019-04-06T19:25:37.889Z,76.37
2019-04-06T19:28:10.941Z,74.13
2019-04-06T19:30:44.427Z,69.50
2019-04-06T19:33:23.338Z,84.03
2019-04-06T19:35:50.675Z,66.17
2019-04-06T19:38:22.732Z,70.33
2019-04-06T19:40:55.209Z,75.17
2019-04-06T19:43:27.768Z,198.93
2019-04-06T19:46:00.021Z,88.57
2019-04-06T19:48:33.872Z,99.90
2019-04-06T19:51:06.186Z,76.00
2019-04-06T19:53:39.063Z,351.67
2019-04-06T19:56:11.225Z,106.83
2019-04-06T19:58:43.811Z,154.90
2019-04-06T20:01:15.989Z,133.20
2019-04-06T20:03:48.215Z,92.30
2019-04-06T20:06:20.562Z,96.60
2019-04-06T20:08:52.854Z,74.43
2019-04-06T20:11:25.555Z,150.50
2019-04-06T20:13:57.643Z,100.27
2019-04-06T20:16:29.613Z,88.13
2019-04-06T20:19:01.644Z,67.37
2019-04-06T20:21:34.112Z,58.10
2019-04-06T20:24:06.846Z,52.73
2019-04-06T20:26:39.886Z,54.93
2019-04-06T20:29:12.683Z,87.40
2019-04-06T20:31:44.897Z,55.37
2019-04-06T20:34:16.865Z,64.13
2019-04-06T20:36:49.065Z,54.37
2019-04-06T20:39:21.102Z,56.20
2019-04-06T20:41:53.206Z,57.57
2019-04-06T20:44:25.178Z,60.07
2019-04-06T20:46:57.161Z,58.43
2019-04-06T20:49:29.116Z,56.73
2019-04-06T20:52:01.167Z,58.00
2019-04-06T20:54:33.239Z,52.10
2019-04-06T20:57:05.402Z,58.80
2019-04-06T20:59:37.516Z,57.03
2019-04-06T21:02:09.450Z,69.60
2019-04-06T21:04:41.422Z,53.20
2019-04-06T21:07:13.413Z,50.43
2019-04-06T21:09:45.399Z,52.03
2019-04-06T21:12:18.184Z,47.60
2019-04-06T21:14:52.814Z,52.63
2019-04-06T21:17:24.119Z,49.83
2019-04-06T21:19:56.134Z,48.63
2019-04-06T21:22:28.083Z,51.47
2019-04-06T21:25:00.572Z,58.17
2019-04-06T21:27:32.638Z,47.40
2019-04-06T21:30:05.452Z,52.93
2019-04-06T21:32:37.420Z,45.70
2019-04-06T21:35:09.497Z,57.40
2019-04-06T21:37:41.596Z,54.63
2019-04-06T21:40:15.902Z,54.90
2019-04-06T21:42:48.445Z,56.33
2019-04-06T21:45:20.730Z,73.63
2019-04-06T21:47:53.073Z,70.00
2019-04-06T21:50:25.640Z,62.93
2019-04-06T21:52:57.709Z,70.77
2019-04-06T21:55:30.058Z,75.73
2019-04-06T21:58:03.241Z,69.47
2019-04-06T22:00:52.419Z,64.13
2019-04-06T22:03:24.453Z,67.47
2019-04-06T22:05:56.757Z,71.17
2019-04-06T22:08:29.479Z,66.17
2019-04-06T22:11:01.822Z,69.47
2019-04-06T22:13:33.884Z,75.43
2019-04-06T22:16:06.287Z,75.13
2019-04-06T22:18:38.372Z,71.50
2019-04-06T22:21:10.618Z,69.03
2019-04-06T22:23:44.946Z,79.90
2019-04-06T22:26:17.074Z,71.33
2019-04-06T22:28:49.232Z,75.73
2019-04-06T22:31:21.363Z,85.90
2019-04-06T22:33:55.626Z,80.97
2019-04-06T22:36:27.716Z,78.50
2019-04-06T22:39:00.629Z,75.33
2019-04-06T22:41:32.773Z,90.83
2019-04-06T22:44:05.647Z,92.40
2019-04-06T22:46:38.087Z,93.73
2019-04-06T22:49:10.343Z,101.13
2019-04-06T22:51:43.497Z,91.43
2019-04-06T22:54:15.507Z,78.27
2019-04-06T22:56:47.447Z,88.43
2019-04-06T22:59:19.509Z,84.83
2019-04-06T23:01:51.708Z,73.80
2019-04-06T23:04:47.710Z,67.77
2019-04-06T23:07:16.782Z,72.80
2019-04-06T23:09:49.368Z,68.33
2019-04-06T23:12:21.337Z,73.73
2019-04-06T23:14:53.792Z,75.27
2019-04-06T23:17:26.098Z,71.53
2019-04-06T23:19:58.163Z,68.10
2019-04-06T23:22:30.392Z,72.17
2019-04-06T23:25:02.762Z,64.50
2019-04-06T23:27:35.354Z,68.90
2019-04-06T23:30:08.820Z,69.73
2019-04-06T23:32:41.154Z,72.40
2019-04-06T23:35:13.298Z,79.10
2019-04-06T23:37:45.839Z,77.83
2019-04-06T23:40:17.917Z,76.47
2019-04-06T23:42:50.479Z,81.87
2019-04-06T23:45:23.427Z,99.10
2019-04-06T23:47:55.900Z,106.87
2019-04-06T23:50:28.201Z,106.13
2019-04-06T23:53:00.722Z,110.73
2019-04-06T23:55:35.496Z,106.70
2019-04-06T23:58:07.538Z,120.13
